YWLM/NTL METAR and TAF weather

Enter ICAO airport designator
Station Type Date Time Source
YWLM METAR 2022/07/01 02:19 UTC NOAA

YWLM 010219Z 22007KT 190V250 6000 SHRA FEW006 SCT012 BKN020 14/14 Q1023


Station Type Date Time Source
YWLM Decoded METAR 2022/07/01 02:19 UTC NOAA

Station name not available
Jun 30, 2022 - 10:19 PM EDT / 2022.07.01 0219 UTC
Wind: from the SW (220 degrees) at 8 MPH (7 KT) (direction variable):0
Visibility: 3 mile(s):0
Sky conditions: mostly cloudy
Weather: rain showers
Temperature: 57 F (14 C)
Dew Point: 57 F (14 C)
Relative Humidity: 100%
Pressure (altimeter): 30.21 in. Hg (1023 hPa)
ob: YWLM 010219Z 22007KT 190V250 6000 SHRA FEW006 SCT012 BKN020 14/14 Q1023
cycle: 2

Station Type Date Time Source
YWLM TAF 2022/07/01 01:00 UTC NOAA

TAF
AMD YWLM 010042Z 0101/0200 19012KT 9999 -SHRA SCT012 BKN020
FM010800 21005KT 9999 -SHRA SCT012 BKN018
FM011200 28005KT 9999 -SHRA SCT010 BKN018 INTER 0101/0200 2000 SHRA SCT006 BKN012

Example: see airport list